createdAt,value
2018-08-17T00:02:06.422Z,3.40
2018-08-17T00:04:34.466Z,3.70
2018-08-17T00:07:02.278Z,3.80
2018-08-17T00:09:30.315Z,3.60
2018-08-17T00:11:58.167Z,4.20
2018-08-17T00:14:25.822Z,4.63
2018-08-17T00:16:53.643Z,5.97
2018-08-17T00:19:21.346Z,7.30
2018-08-17T00:21:49.034Z,6.80
2018-08-17T00:24:16.723Z,6.43
2018-08-17T00:26:44.688Z,6.97
2018-08-17T00:29:12.415Z,6.17
2018-08-17T00:31:40.240Z,6.67
2018-08-17T00:34:08.039Z,5.97
2018-08-17T00:36:35.839Z,5.30
2018-08-17T00:39:05.916Z,5.30
2018-08-17T00:41:33.866Z,5.10
2018-08-17T00:44:01.655Z,4.53
2018-08-17T00:46:29.359Z,4.90
2018-08-17T00:48:57.147Z,4.53
2018-08-17T00:51:24.876Z,3.93
2018-08-17T00:53:52.585Z,4.07
2018-08-17T00:56:20.331Z,4.47
2018-08-17T00:58:48.117Z,4.03
2018-08-17T01:01:15.843Z,4.13
2018-08-17T01:03:43.574Z,4.57
2018-08-17T01:06:11.275Z,4.37
2018-08-17T01:08:39.082Z,4.00
2018-08-17T01:11:06.761Z,4.10
2018-08-17T01:13:34.442Z,5.00
2018-08-17T01:16:02.402Z,6.60
2018-08-17T01:18:30.066Z,7.40
2018-08-17T01:20:57.798Z,7.37
2018-08-17T01:23:25.492Z,6.80
2018-08-17T01:25:53.184Z,8.47
2018-08-17T01:28:21.118Z,7.37
2018-08-17T01:30:48.865Z,8.47
2018-08-17T01:33:16.758Z,7.90
2018-08-17T01:35:44.702Z,9.03
2018-08-17T01:38:12.373Z,7.50
2018-08-17T01:40:40.151Z,7.70
2018-08-17T01:43:07.968Z,7.30
2018-08-17T01:45:35.623Z,7.07
2018-08-17T01:48:03.850Z,7.20
2018-08-17T01:50:31.755Z,6.00
2018-08-17T01:52:59.427Z,6.90
2018-08-17T01:55:27.750Z,5.80
2018-08-17T01:57:55.603Z,5.67
2018-08-17T02:00:23.426Z,5.87
2018-08-17T02:02:51.129Z,5.43
2018-08-17T02:05:18.951Z,4.53
2018-08-17T02:07:46.638Z,4.60
2018-08-17T02:10:14.367Z,4.43
2018-08-17T02:12:42.064Z,4.60
2018-08-17T02:15:09.856Z,5.20
2018-08-17T02:17:37.619Z,3.83
2018-08-17T02:20:05.907Z,4.90
2018-08-17T02:22:33.660Z,4.07
2018-08-17T02:25:01.662Z,4.33
2018-08-17T02:27:29.508Z,5.00
2018-08-17T02:29:57.321Z,5.00
2018-08-17T02:32:25.276Z,5.57
2018-08-17T02:34:53.017Z,5.17
2018-08-17T02:37:20.840Z,4.90
2018-08-17T02:39:48.563Z,5.43
2018-08-17T02:42:16.282Z,5.30
2018-08-17T02:44:43.965Z,5.00
2018-08-17T02:47:11.686Z,4.80
2018-08-17T02:49:39.412Z,4.37
2018-08-17T02:52:07.259Z,4.90
2018-08-17T02:54:34.986Z,5.77
2018-08-17T02:57:02.809Z,5.67
2018-08-17T02:59:30.567Z,5.70
2018-08-17T03:01:58.404Z,4.83
2018-08-17T03:04:26.156Z,5.10
2018-08-17T03:06:54.015Z,4.30
2018-08-17T03:09:21.830Z,4.40
2018-08-17T03:11:49.576Z,3.70
2018-08-17T03:14:17.291Z,3.70
2018-08-17T03:16:45.132Z,4.47
2018-08-17T03:19:12.915Z,3.87
2018-08-17T03:21:40.596Z,4.07
2018-08-17T03:24:08.410Z,3.63
2018-08-17T03:26:36.203Z,3.70
2018-08-17T03:29:04.294Z,3.70
2018-08-17T03:31:32.702Z,4.07
2018-08-17T03:34:00.395Z,4.10
2018-08-17T03:36:28.091Z,3.90
2018-08-17T03:38:55.919Z,3.87
2018-08-17T03:41:23.614Z,3.47
2018-08-17T03:43:51.350Z,4.50
2018-08-17T03:46:19.039Z,4.30
2018-08-17T03:48:46.783Z,4.10
2018-08-17T03:51:14.687Z,3.60
2018-08-17T03:53:42.379Z,4.27
2018-08-17T03:56:10.107Z,4.40
2018-08-17T03:58:37.906Z,4.70
2018-08-17T04:01:05.742Z,4.40
2018-08-17T04:03:33.535Z,4.87
2018-08-17T04:06:01.233Z,4.30
2018-08-17T04:08:29.369Z,5.17
2018-08-17T04:10:57.131Z,4.67
2018-08-17T04:13:25.188Z,4.63
2018-08-17T04:15:53.133Z,4.30
2018-08-17T04:18:20.915Z,4.57
2018-08-17T04:20:48.659Z,4.13
2018-08-17T04:23:16.395Z,3.37
2018-08-17T04:25:44.178Z,4.30
2018-08-17T04:28:11.893Z,4.07
2018-08-17T04:30:39.791Z,4.30
2018-08-17T04:33:08.131Z,3.60
2018-08-17T04:35:39.667Z,4.57
2018-08-17T04:38:08.552Z,4.33
2018-08-17T04:40:36.691Z,4.00
2018-08-17T04:43:04.905Z,3.97
2018-08-17T04:45:34.015Z,4.00
2018-08-17T04:48:01.765Z,3.63
2018-08-17T04:50:29.445Z,4.50
2018-08-17T04:52:57.302Z,4.70
2018-08-17T04:55:24.961Z,4.70
2018-08-17T04:57:53.080Z,4.53
2018-08-17T05:00:21.243Z,4.33
2018-08-17T05:02:49.023Z,4.63
2018-08-17T05:05:16.788Z,3.97
2018-08-17T05:07:44.502Z,3.90
2018-08-17T05:10:12.346Z,4.03
2018-08-17T05:12:41.042Z,3.50
2018-08-17T05:15:08.838Z,3.90
2018-08-17T05:17:36.703Z,3.83
2018-08-17T05:20:05.669Z,3.73
2018-08-17T05:22:33.322Z,4.20
2018-08-17T05:25:01.204Z,3.70
2018-08-17T05:27:28.898Z,4.27
2018-08-17T05:29:56.634Z,3.77
2018-08-17T05:32:24.467Z,4.07
2018-08-17T05:34:52.203Z,3.83
2018-08-17T05:37:19.922Z,4.23
2018-08-17T05:39:47.622Z,3.87
2018-08-17T05:42:15.926Z,4.67
2018-08-17T05:44:43.600Z,4.50
2018-08-17T05:47:11.349Z,4.13
2018-08-17T05:49:39.027Z,4.17
2018-08-17T05:52:06.915Z,4.40
2018-08-17T05:54:34.604Z,4.07
2018-08-17T05:57:02.302Z,4.30
2018-08-17T05:59:30.049Z,4.20
2018-08-17T06:01:58.019Z,4.20
2018-08-17T06:04:26.607Z,3.80
2018-08-17T06:06:54.303Z,4.33
2018-08-17T06:09:22.173Z,3.70
2018-08-17T06:11:51.277Z,4.07
2018-08-17T06:14:20.104Z,4.23
2018-08-17T06:16:47.922Z,4.20
2018-08-17T06:19:15.711Z,4.50
2018-08-17T06:21:43.382Z,3.70
2018-08-17T06:24:11.111Z,3.60
2018-08-17T06:26:38.795Z,4.17
2018-08-17T06:29:06.543Z,3.77
2018-08-17T06:31:34.866Z,4.93
2018-08-17T06:34:02.614Z,4.10
2018-08-17T06:36:30.345Z,3.30
2018-08-17T06:38:58.062Z,3.50
2018-08-17T06:41:25.751Z,3.40
2018-08-17T06:43:53.479Z,3.90
2018-08-17T06:46:21.240Z,3.77
2018-08-17T06:48:48.978Z,3.37
2018-08-17T06:51:16.667Z,3.37
2018-08-17T06:53:44.383Z,3.90
2018-08-17T06:56:12.184Z,3.23
2018-08-17T06:58:39.863Z,4.13
2018-08-17T07:01:10.855Z,3.00
2018-08-17T07:03:38.948Z,3.57
2018-08-17T07:06:07.263Z,3.50
2018-08-17T07:08:35.021Z,3.63
2018-08-17T07:11:02.748Z,4.50
2018-08-17T07:13:30.489Z,3.33
2018-08-17T07:15:58.286Z,3.77
2018-08-17T07:18:25.995Z,3.50
2018-08-17T07:20:53.727Z,4.10
2018-08-17T07:23:21.435Z,4.17
2018-08-17T07:25:49.251Z,4.40
2018-08-17T07:28:16.994Z,3.17
2018-08-17T07:30:44.913Z,3.37
2018-08-17T07:33:12.606Z,3.07
2018-08-17T07:35:40.340Z,4.37
2018-08-17T07:38:08.120Z,3.17
2018-08-17T07:40:35.807Z,3.63
2018-08-17T07:43:03.566Z,3.20
2018-08-17T07:45:31.269Z,3.23
2018-08-17T07:47:59.086Z,3.47
2018-08-17T07:50:26.742Z,3.17
2018-08-17T07:52:54.731Z,2.57
2018-08-17T07:55:48.911Z,3.60
2018-08-17T07:58:17.731Z,3.20
2018-08-17T08:00:45.532Z,2.90
2018-08-17T08:03:16.922Z,2.80
2018-08-17T08:05:44.630Z,2.50
2018-08-17T08:08:12.542Z,2.50
2018-08-17T08:10:40.264Z,2.73
2018-08-17T08:13:07.939Z,2.80
2018-08-17T08:15:35.619Z,3.00
2018-08-17T08:18:03.306Z,3.03
2018-08-17T08:20:35.347Z,2.60
2018-08-17T08:23:20.090Z,3.20
2018-08-17T08:25:47.825Z,3.00
2018-08-17T08:28:15.551Z,3.00
2018-08-17T08:30:43.306Z,2.70
2018-08-17T08:33:11.199Z,2.63
2018-08-17T08:35:38.982Z,3.20
2018-08-17T08:38:06.995Z,2.70
2018-08-17T08:40:34.710Z,2.80
2018-08-17T08:43:02.642Z,3.00
2018-08-17T08:45:30.440Z,2.53
2018-08-17T08:47:58.106Z,2.50
2018-08-17T08:50:25.942Z,3.10
2018-08-17T08:52:53.699Z,3.10
2018-08-17T08:55:21.464Z,2.63
2018-08-17T08:57:49.235Z,2.63
2018-08-17T09:00:16.995Z,2.77
2018-08-17T09:02:44.747Z,2.87
2018-08-17T09:07:47.623Z,2.70
2018-08-17T09:10:15.492Z,2.83
2018-08-17T09:12:43.327Z,2.57
2018-08-17T09:15:11.699Z,2.07
2018-08-17T09:17:40.527Z,2.73
2018-08-17T09:20:10.922Z,2.90
2018-08-17T09:22:38.834Z,2.53
2018-08-17T09:25:06.794Z,2.33
2018-08-17T09:27:34.519Z,2.67
2018-08-17T09:30:05.284Z,2.27
2018-08-17T09:32:33.823Z,2.30
2018-08-17T09:35:01.624Z,2.43
2018-08-17T09:37:29.319Z,2.70
2018-08-17T09:39:57.007Z,2.70
2018-08-17T09:42:24.691Z,2.27
2018-08-17T09:44:52.467Z,2.47
2018-08-17T09:47:20.484Z,2.73
2018-08-17T09:49:48.279Z,2.30
2018-08-17T09:52:16.060Z,2.53
2018-08-17T09:54:43.818Z,2.20
2018-08-17T09:57:11.518Z,2.90
2018-08-17T10:01:21.128Z,2.83
2018-08-17T10:07:03.007Z,2.40
2018-08-17T10:12:10.399Z,2.80
2018-08-17T10:14:38.103Z,2.57
2018-08-17T10:17:05.912Z,2.57
2018-08-17T10:19:34.017Z,2.50
2018-08-17T10:22:02.628Z,2.53
2018-08-17T10:24:30.369Z,2.60
2018-08-17T10:26:58.558Z,2.30
2018-08-17T10:29:26.383Z,2.60
2018-08-17T10:32:26.861Z,2.40
2018-08-17T10:35:10.644Z,2.67
2018-08-17T10:40:03.483Z,2.47
2018-08-17T10:42:31.554Z,2.30
2018-08-17T10:44:59.299Z,2.50
2018-08-17T10:47:27.009Z,2.70
2018-08-17T10:49:55.590Z,2.60
2018-08-17T10:52:23.286Z,2.83
2018-08-17T10:54:51.094Z,2.73
2018-08-17T10:57:18.822Z,2.73
2018-08-17T10:59:46.515Z,2.60
2018-08-17T11:02:14.287Z,2.87
2018-08-17T11:04:42.025Z,2.83
2018-08-17T11:07:09.754Z,2.50
2018-08-17T11:09:37.474Z,2.73
2018-08-17T11:12:05.470Z,2.90
2018-08-17T11:14:33.171Z,2.50
2018-08-17T11:17:00.934Z,2.80
2018-08-17T11:19:32.207Z,2.70
2018-08-17T11:21:59.935Z,2.90
2018-08-17T11:24:27.680Z,2.77
2018-08-17T11:26:55.391Z,2.50
2018-08-17T11:29:23.087Z,2.70
2018-08-17T11:31:52.151Z,2.30
2018-08-17T11:34:19.840Z,2.70
2018-08-17T11:36:47.596Z,2.80
2018-08-17T11:39:15.324Z,2.97
2018-08-17T11:41:43.019Z,2.73
2018-08-17T11:44:14.780Z,3.57
2018-08-17T11:46:42.479Z,2.93
2018-08-17T11:49:10.212Z,2.83
2018-08-17T11:51:39.974Z,2.50
2018-08-17T11:54:09.869Z,2.67
2018-08-17T11:56:37.564Z,2.90
2018-08-17T11:59:05.290Z,2.70
2018-08-17T12:01:34.194Z,3.13
2018-08-17T12:04:02.179Z,2.80
2018-08-17T12:06:30.009Z,3.17
2018-08-17T12:08:57.740Z,3.40
2018-08-17T12:11:25.458Z,3.10
2018-08-17T12:13:59.959Z,3.13
2018-08-17T12:16:27.679Z,3.07
2018-08-17T12:18:55.371Z,2.90
2018-08-17T12:21:23.067Z,2.93
2018-08-17T12:23:50.762Z,2.83
2018-08-17T12:26:18.451Z,3.10
2018-08-17T12:28:46.231Z,2.60
2018-08-17T12:31:13.932Z,3.00
2018-08-17T12:33:41.607Z,2.90
2018-08-17T12:36:09.534Z,2.83
2018-08-17T12:38:37.239Z,2.70
2018-08-17T12:41:05.172Z,3.30
2018-08-17T12:43:36.967Z,2.73
2018-08-17T12:46:04.683Z,2.53
2018-08-17T12:48:32.460Z,2.70
2018-08-17T12:51:06.585Z,3.20
2018-08-17T12:53:34.317Z,2.90
2018-08-17T12:56:02.094Z,2.63
2018-08-17T12:58:29.788Z,3.07
2018-08-17T13:00:57.635Z,3.10
2018-08-17T13:03:25.319Z,3.00
2018-08-17T13:05:53.006Z,3.40
2018-08-17T13:08:20.735Z,2.90
2018-08-17T13:10:48.523Z,2.80
2018-08-17T13:13:16.186Z,3.10
2018-08-17T13:16:06.436Z,2.73
2018-08-17T13:18:36.536Z,3.27
2018-08-17T13:21:04.356Z,3.03
2018-08-17T13:23:32.078Z,2.73
2018-08-17T13:25:59.894Z,3.30
2018-08-17T13:28:27.641Z,3.50
2018-08-17T13:30:55.395Z,3.37
2018-08-17T13:33:23.074Z,3.23
2018-08-17T13:35:50.784Z,3.57
2018-08-17T13:38:18.571Z,3.57
2018-08-17T13:40:46.265Z,3.10
2018-08-17T13:43:14.218Z,3.30
2018-08-17T13:45:41.934Z,3.23
2018-08-17T13:48:09.628Z,3.73
2018-08-17T13:50:37.387Z,3.60
2018-08-17T13:53:05.395Z,4.00
2018-08-17T13:55:33.183Z,3.93
2018-08-17T13:58:01.214Z,3.60
2018-08-17T14:00:28.907Z,3.67
2018-08-17T14:02:56.604Z,4.20
2018-08-17T14:05:24.412Z,4.33
2018-08-17T14:07:52.183Z,4.57
2018-08-17T14:10:19.868Z,3.93
2018-08-17T14:12:47.563Z,3.90
2018-08-17T14:15:15.261Z,3.90
2018-08-17T14:17:42.940Z,4.00
2018-08-17T14:20:15.093Z,3.57
2018-08-17T14:22:42.804Z,3.90
2018-08-17T14:25:10.910Z,3.40
2018-08-17T14:27:38.855Z,3.50
2018-08-17T14:30:13.722Z,3.20
2018-08-17T14:32:41.750Z,3.63
2018-08-17T14:35:09.716Z,3.57
2018-08-17T14:37:37.449Z,3.47
2018-08-17T14:40:05.876Z,3.33
2018-08-17T14:42:33.569Z,3.63
2018-08-17T14:45:01.275Z,3.57
2018-08-17T14:47:28.999Z,3.50
2018-08-17T14:49:56.706Z,3.60
2018-08-17T14:52:24.460Z,3.70
2018-08-17T14:54:52.163Z,3.20
2018-08-17T14:57:19.886Z,3.37
2018-08-17T14:59:47.579Z,3.43
2018-08-17T15:02:15.354Z,3.60
2018-08-17T15:04:43.070Z,3.40
2018-08-17T15:07:10.819Z,3.80
2018-08-17T15:09:38.568Z,3.50
2018-08-17T15:12:06.341Z,3.63
2018-08-17T15:14:34.065Z,3.80
2018-08-17T15:17:01.799Z,3.37
2018-08-17T15:19:29.492Z,3.10
2018-08-17T15:21:57.476Z,3.50
2018-08-17T15:24:25.170Z,3.70
2018-08-17T15:26:52.924Z,3.77
2018-08-17T15:29:20.626Z,3.23
2018-08-17T15:31:48.800Z,3.30
2018-08-17T15:34:16.502Z,3.07
2018-08-17T15:36:44.219Z,3.43
2018-08-17T15:39:12.119Z,3.47
2018-08-17T15:41:44.163Z,3.30
2018-08-17T15:44:22.516Z,3.53
2018-08-17T15:46:50.246Z,3.30
2018-08-17T15:49:22.562Z,3.13
2018-08-17T15:51:50.318Z,3.40
2018-08-17T15:54:18.007Z,3.63
2018-08-17T15:56:45.698Z,3.80
2018-08-17T15:59:13.466Z,4.00
2018-08-17T16:01:41.249Z,3.73
2018-08-17T16:04:09.338Z,3.53
2018-08-17T16:06:37.166Z,3.17
2018-08-17T16:09:08.472Z,3.57
2018-08-17T16:11:36.215Z,3.40
2018-08-17T16:14:04.251Z,3.53
2018-08-17T16:16:31.943Z,3.23
2018-08-17T16:18:59.696Z,3.57
2018-08-17T16:21:27.414Z,3.13
2018-08-17T16:23:55.111Z,3.43
2018-08-17T16:26:22.815Z,3.20
2018-08-17T16:28:50.530Z,3.43
2018-08-17T16:31:18.271Z,3.30
2018-08-17T16:33:46.005Z,2.90
2018-08-17T16:36:13.896Z,3.43
2018-08-17T16:38:41.652Z,3.93
2018-08-17T16:41:09.339Z,3.30
2018-08-17T16:43:43.963Z,3.33
2018-08-17T16:46:12.243Z,3.47
2018-08-17T16:48:40.978Z,3.20
2018-08-17T16:51:08.915Z,3.60
2018-08-17T16:53:36.798Z,4.17
2018-08-17T16:56:04.574Z,4.00
2018-08-17T16:58:32.392Z,3.60
2018-08-17T17:01:00.198Z,3.20
2018-08-17T17:03:27.935Z,3.80
2018-08-17T17:06:00.323Z,3.40
2018-08-17T17:08:28.495Z,3.20
2018-08-17T17:10:56.248Z,3.30
2018-08-17T17:13:24.223Z,4.00
2018-08-17T17:15:51.947Z,3.60
2018-08-17T17:18:19.787Z,3.30
2018-08-17T17:20:47.561Z,3.80
2018-08-17T17:23:15.295Z,3.57
2018-08-17T17:25:43.006Z,3.60
2018-08-17T17:28:11.020Z,3.57
2018-08-17T17:30:44.770Z,3.90
2018-08-17T17:33:12.588Z,4.60
2018-08-17T17:35:41.371Z,4.70
2018-08-17T17:38:09.662Z,4.40
2018-08-17T17:40:37.719Z,4.87
2018-08-17T17:43:05.919Z,5.97
2018-08-17T17:45:33.819Z,6.23
2018-08-17T17:48:02.375Z,6.10
2018-08-17T17:50:30.406Z,6.20
2018-08-17T17:52:59.231Z,6.47
2018-08-17T17:55:50.354Z,6.10
2018-08-17T17:58:19.871Z,6.33
2018-08-17T18:00:59.461Z,5.90
2018-08-17T18:03:28.477Z,4.57
2018-08-17T18:06:02.811Z,5.23
2018-08-17T18:08:30.759Z,4.17
2018-08-17T18:10:58.532Z,4.50
2018-08-17T18:13:26.315Z,4.57
2018-08-17T18:15:54.093Z,4.90
2018-08-17T18:18:21.971Z,5.20
2018-08-17T18:20:49.787Z,4.90
2018-08-17T18:23:17.561Z,5.30
2018-08-17T18:25:45.257Z,6.00
2018-08-17T18:28:13.031Z,6.00
2018-08-17T18:30:40.909Z,6.23
2018-08-17T18:33:08.909Z,6.50
2018-08-17T18:35:36.630Z,6.13
2018-08-17T18:38:04.793Z,6.97
2018-08-17T18:40:32.540Z,8.10
2018-08-17T18:43:00.316Z,6.23
2018-08-17T18:45:28.092Z,8.00
2018-08-17T18:47:55.811Z,5.47
2018-08-17T18:50:23.546Z,6.43
2018-08-17T18:52:51.382Z,7.07
2018-08-17T18:55:19.018Z,6.20
2018-08-17T18:57:46.742Z,6.60
2018-08-17T19:00:14.641Z,6.57
2018-08-17T19:02:42.423Z,6.90
2018-08-17T19:05:10.766Z,7.07
2018-08-17T19:07:38.818Z,6.13
2018-08-17T19:10:07.757Z,5.87
2018-08-17T19:12:36.000Z,6.00
2018-08-17T19:15:09.495Z,5.13
2018-08-17T19:17:37.339Z,5.67
2018-08-17T19:20:08.602Z,5.27
2018-08-17T19:22:42.232Z,5.07
2018-08-17T19:25:11.506Z,5.80
2018-08-17T19:27:39.967Z,5.57
2018-08-17T19:30:21.211Z,5.50
2018-08-17T19:32:49.272Z,6.10
2018-08-17T19:35:17.420Z,4.90
2018-08-17T19:37:45.167Z,5.40
2018-08-17T19:40:12.906Z,4.90
2018-08-17T19:42:40.667Z,4.50
2018-08-17T19:45:08.451Z,4.50
2018-08-17T19:47:36.167Z,4.77
2018-08-17T19:50:04.028Z,4.70
2018-08-17T19:52:31.754Z,4.67
2018-08-17T19:54:59.511Z,4.57
2018-08-17T19:57:27.233Z,4.67
2018-08-17T19:59:54.967Z,4.83
2018-08-17T20:02:22.663Z,4.27
2018-08-17T20:04:50.507Z,4.70
2018-08-17T20:07:18.224Z,3.97
2018-08-17T20:09:46.088Z,4.00
2018-08-17T20:12:13.847Z,4.13
2018-08-17T20:14:41.610Z,4.03
2018-08-17T20:17:09.426Z,3.83
2018-08-17T20:19:43.244Z,3.67
2018-08-17T20:22:17.835Z,3.70
2018-08-17T20:24:45.879Z,3.67
2018-08-17T20:27:13.730Z,3.90
2018-08-17T20:29:41.509Z,8.67
2018-08-17T20:32:09.303Z,5.20
2018-08-17T20:34:44.146Z,3.97
2018-08-17T20:37:13.034Z,3.20
2018-08-17T20:39:42.089Z,3.17
2018-08-17T20:42:10.328Z,2.90
2018-08-17T20:44:38.123Z,3.20
2018-08-17T20:47:05.882Z,3.10
2018-08-17T20:49:33.628Z,3.30
2018-08-17T20:52:02.655Z,3.07
2018-08-17T20:54:31.164Z,2.80
2018-08-17T20:56:59.471Z,3.00
2018-08-17T20:59:27.231Z,3.07
2018-08-17T21:01:55.017Z,3.10
2018-08-17T21:04:22.744Z,2.93
2018-08-17T21:06:50.471Z,3.60
2018-08-17T21:09:18.422Z,3.30
2018-08-17T21:11:46.315Z,2.67
2018-08-17T21:14:14.037Z,3.30
2018-08-17T21:16:41.746Z,3.03
2018-08-17T21:19:09.959Z,2.90
2018-08-17T21:21:38.032Z,3.00
2018-08-17T21:24:05.787Z,4.03
2018-08-17T21:26:33.474Z,3.80
2018-08-17T21:29:03.212Z,3.30
2018-08-17T21:31:30.923Z,3.40
2018-08-17T21:33:58.651Z,3.80
2018-08-17T21:36:26.618Z,3.20
2018-08-17T21:39:13.921Z,3.70
2018-08-17T21:41:43.607Z,3.90
2018-08-17T21:44:12.927Z,3.30
2018-08-17T21:46:51.195Z,3.80
2018-08-17T21:49:19.428Z,4.40
2018-08-17T21:51:47.119Z,3.70
2018-08-17T21:54:14.889Z,4.07
2018-08-17T21:56:42.847Z,3.87
2018-08-17T21:59:10.503Z,4.20
2018-08-17T22:01:38.568Z,4.20
2018-08-17T22:04:06.332Z,3.97
2018-08-17T22:06:34.047Z,3.73
2018-08-17T22:09:01.787Z,4.20
2018-08-17T22:11:33.622Z,4.03
2018-08-17T22:14:01.626Z,3.90
2018-08-17T22:16:29.334Z,4.10
2018-08-17T22:18:57.067Z,4.00
2018-08-17T22:21:25.279Z,4.00
2018-08-17T22:23:53.197Z,3.67
2018-08-17T22:26:21.455Z,3.97
2018-08-17T22:28:49.178Z,4.40
2018-08-17T22:31:42.600Z,4.53
2018-08-17T22:34:10.310Z,3.70
2018-08-17T22:36:38.027Z,4.10
2018-08-17T22:39:06.976Z,4.93
2018-08-17T22:41:34.646Z,3.90
2018-08-17T22:44:07.867Z,4.43
2018-08-17T22:46:35.538Z,3.77
2018-08-17T22:49:03.358Z,3.80
2018-08-17T22:51:31.127Z,3.80
2018-08-17T22:53:58.859Z,3.70
2018-08-17T22:56:27.571Z,4.00
2018-08-17T22:58:55.762Z,3.83
2018-08-17T23:01:23.466Z,3.83
2018-08-17T23:03:53.524Z,4.07
2018-08-17T23:06:22.312Z,3.90
2018-08-17T23:08:49.963Z,3.53
2018-08-17T23:11:31.624Z,3.87
2018-08-17T23:14:04.968Z,4.00
2018-08-17T23:16:32.710Z,3.90
2018-08-17T23:19:00.643Z,4.40
2018-08-17T23:21:28.337Z,4.30
2018-08-17T23:23:56.075Z,4.60
2018-08-17T23:26:23.795Z,4.00
2018-08-17T23:28:51.502Z,4.87
2018-08-17T23:31:19.492Z,4.40
2018-08-17T23:33:50.147Z,4.43
2018-08-17T23:36:17.890Z,4.57
2018-08-17T23:38:45.687Z,4.37
2018-08-17T23:41:13.405Z,4.53
2018-08-17T23:43:41.147Z,4.43
2018-08-17T23:46:08.846Z,4.40
2018-08-17T23:48:36.551Z,4.13
2018-08-17T23:51:04.318Z,4.50
2018-08-17T23:53:32.453Z,4.30
2018-08-17T23:56:00.248Z,4.50
2018-08-17T23:58:27.964Z,4.50
